Time;durP1;ratioP1;P1;durP2;ratioP2;P2;SDS_P1;SDS_P2;PMS_P1;PMS_P2;Temp;Humidity;BMP_temperature;BMP_pressure;BME280_temperature;BME280_humidity;BME280_pressure;Samples;Min_cycle;Max_cycle;Signal;HPM_P1;HPM_P2
2022/03/27 15:58:59;;;;;;;10.33;5.10;;;3.60;76.50;;;;;;5065471;27;20581;-66
2022/03/27 16:01:28;;;;;;;7.73;4.80;;;3.80;75.80;;;;;;5065499;27;20534;-65
2022/03/27 16:03:56;;;;;;;9.67;5.53;;;3.70;76.10;;;;;;5065785;28;20208;-66
2022/03/27 16:06:25;;;;;;;13.93;6.33;;;3.70;76.30;;;;;;5064959;28;20205;-65
2022/03/27 16:08:53;;;;;;;18.20;6.97;;;3.60;76.60;;;;;;5065421;28;20628;-66
2022/03/27 16:11:21;;;;;;;13.87;6.00;;;3.60;77.00;;;;;;5047341;28;20547;-66
2022/03/27 16:13:49;;;;;;;13.23;5.93;;;3.60;77.30;;;;;;5065590;27;20697;-64
2022/03/27 16:16:20;;;;;;;16.23;5.70;;;3.50;77.70;;;;;;5065131;28;20625;-65
2022/03/27 16:18:48;;;;;;;15.90;5.80;;;3.50;78.10;;;;;;5065278;28;20681;-66
2022/03/27 16:21:17;;;;;;;12.17;5.30;;;3.40;78.50;;;;;;5065202;28;20293;-65
2022/03/27 16:23:45;;;;;;;12.20;5.67;;;3.40;78.80;;;;;;5065063;28;20641;-66
2022/03/27 16:26:13;;;;;;;12.23;4.50;;;3.40;79.00;;;;;;5047015;28;20458;-65
2022/03/27 16:28:43;;;;;;;13.90;4.50;;;3.30;79.10;;;;;;5064925;28;20201;-66
2022/03/27 16:31:11;;;;;;;13.37;4.70;;;3.30;79.70;;;;;;5064923;28;20292;-65
2022/03/27 16:33:41;;;;;;;8.53;4.03;;;3.20;79.40;;;;;;5065001;28;20204;-65
2022/03/27 16:36:09;;;;;;;8.87;4.23;;;3.20;79.60;;;;;;5064788;28;20251;-65
2022/03/27 16:38:36;;;;;;;8.53;4.30;;;3.20;79.60;;;;;;5064637;28;20204;-65
2022/03/27 16:41:04;;;;;;;10.43;4.27;;;3.20;79.80;;;;;;5046700;28;20241;-65
2022/03/27 16:43:33;;;;;;;11.03;4.87;;;3.10;79.80;;;;;;5064790;28;20236;-65
2022/03/27 16:46:03;;;;;;;6.73;3.77;;;3.10;80.00;;;;;;5047104;28;20235;-66
2022/03/27 16:48:32;;;;;;;9.13;3.70;;;3.10;79.90;;;;;;5064734;28;20633;-66
2022/03/27 16:51:01;;;;;;;6.43;3.70;;;3.10;80.10;;;;;;5064896;28;20658;-65
2022/03/27 16:53:30;;;;;;;5.63;3.60;;;3.00;80.30;;;;;;5029502;28;20255;-64
2022/03/27 16:55:59;;;;;;;6.53;3.50;;;3.00;80.30;;;;;;5064735;27;20566;-66
2022/03/27 16:58:26;;;;;;;8.47;3.60;;;3.00;80.50;;;;;;5023716;28;20240;-65
2022/03/27 17:00:54;;;;;;;9.40;4.07;;;2.90;80.90;;;;;;5049972;28;20352;-66
2022/03/27 17:03:26;;;;;;;8.20;3.33;;;2.90;81.20;;;;;;5050127;28;20250;-65
2022/03/27 17:05:54;;;;;;;5.37;3.30;;;2.90;81.30;;;;;;5051499;28;20242;-65
2022/03/27 17:08:23;;;;;;;7.67;3.63;;;2.90;81.40;;;;;;5119679;27;20659;-64
2022/03/27 17:10:52;;;;;;;9.67;3.50;;;2.80;81.70;;;;;;5051046;28;20205;-65
2022/03/27 17:13:22;;;;;;;10.40;3.70;;;2.80;81.90;;;;;;5050975;28;20620;-65
2022/03/27 17:15:51;;;;;;;7.87;3.60;;;2.80;81.80;;;;;;5102292;28;20250;-66
2022/03/27 17:18:25;;;;;;;9.50;3.70;;;2.70;82.30;;;;;;5050782;28;20280;-66
2022/03/27 17:20:53;;;;;;;6.80;3.17;;;2.70;82.40;;;;;;5050705;28;20193;-68
2022/03/27 17:23:22;;;;;;;7.30;3.10;;;2.70;82.50;;;;;;5101700;28;20286;-67
2022/03/27 17:25:51;;;;;;;9.63;3.57;;;2.70;82.60;;;;;;5050772;28;20463;-66
2022/03/27 17:28:20;;;;;;;9.10;3.57;;;2.70;82.90;;;;;;5050670;28;20197;-65
2022/03/27 17:30:48;;;;;;;5.60;3.10;;;2.60;83.00;;;;;;5050223;28;20205;-65
2022/03/27 17:33:15;;;;;;;10.43;3.27;;;2.60;83.10;;;;;;5050509;28;20241;-66
2022/03/27 17:35:44;;;;;;;9.60;3.53;;;2.60;83.40;;;;;;5049359;27;20206;-65
2022/03/27 17:38:12;;;;;;;6.10;3.10;;;2.60;83.40;;;;;;5050480;28;20221;-65
2022/03/27 17:40:43;;;;;;;8.03;3.90;;;2.60;83.50;;;;;;5015318;28;20213;-65
2022/03/27 17:43:11;;;;;;;10.57;4.33;;;2.60;83.50;;;;;;5031744;28;20233;-66
2022/03/27 17:45:39;;;;;;;10.50;4.87;;;2.50;83.40;;;;;;5050491;28;20249;-65
2022/03/27 17:48:09;;;;;;;13.30;5.20;;;2.50;83.50;;;;;;5049126;28;20222;-67
2022/03/27 17:50:39;;;;;;;9.53;4.90;;;2.50;83.70;;;;;;5050162;28;20209;-66
2022/03/27 17:53:07;;;;;;;12.10;5.03;;;2.60;84.10;;;;;;5050329;28;20194;-65
2022/03/27 17:55:36;;;;;;;11.53;4.60;;;2.60;83.90;;;;;;5049245;28;20313;-67
2022/03/27 17:58:06;;;;;;;14.40;4.60;;;2.60;84.00;;;;;;5049922;28;20775;-64
2022/03/27 18:00:35;;;;;;;7.23;4.23;;;2.50;83.80;;;;;;5100539;28;20213;-66
2022/03/27 18:03:03;;;;;;;10.07;4.77;;;2.50;84.00;;;;;;5049109;28;20229;-65
2022/03/27 18:05:34;;;;;;;9.07;4.60;;;2.40;84.20;;;;;;5048948;28;20213;-64
2022/03/27 18:08:02;;;;;;;10.13;5.30;;;2.40;84.30;;;;;;5050080;28;20241;-67
2022/03/27 18:10:32;;;;;;;12.67;6.00;;;2.30;84.40;;;;;;5049389;28;20236;-65
2022/03/27 18:12:59;;;;;;;9.47;5.60;;;2.30;84.60;;;;;;5050163;28;20202;-65
2022/03/27 18:15:29;;;;;;;12.20;5.83;;;2.30;84.70;;;;;;5050094;28;20638;-64
2022/03/27 18:17:57;;;;;;;12.73;6.57;;;2.30;84.80;;;;;;5049862;28;20272;-66
2022/03/27 18:20:25;;;;;;;13.07;6.63;;;2.20;84.90;;;;;;5049988;28;20248;-65
2022/03/27 18:22:53;;;;;;;13.77;6.03;;;2.20;84.80;;;;;;5049897;28;20668;-66
2022/03/27 18:25:20;;;;;;;12.13;6.70;;;2.20;85.00;;;;;;5049958;28;20247;-65
2022/03/27 18:27:48;;;;;;;13.23;6.30;;;2.20;85.30;;;;;;5049864;28;20233;-65
2022/03/27 18:30:16;;;;;;;13.63;6.63;;;2.10;85.50;;;;;;5049659;28;20205;-65
2022/03/27 18:32:46;;;;;;;18.43;7.80;;;2.10;85.50;;;;;;5049611;28;20267;-64
2022/03/27 18:35:15;;;;;;;13.87;6.87;;;2.10;85.70;;;;;;5049964;28;20190;-64
2022/03/27 18:37:44;;;;;;;16.47;7.10;;;2.00;85.70;;;;;;5049562;28;20313;-65
2022/03/27 18:40:13;;;;;;;16.17;7.43;;;1.90;85.70;;;;;;5050117;28;20206;-66
2022/03/27 18:42:45;;;;;;;17.00;8.07;;;1.90;86.00;;;;;;5049806;28;20237;-65
2022/03/27 18:45:14;;;;;;;24.87;10.97;;;1.90;86.10;;;;;;5049698;28;20200;-65
2022/03/27 18:47:42;;;;;;;16.93;8.03;;;1.90;86.20;;;;;;5049253;28;20643;-65
2022/03/27 18:50:13;;;;;;;21.63;8.30;;;1.90;86.20;;;;;;5049930;28;20685;-64
2022/03/27 18:52:43;;;;;;;14.83;7.43;;;1.90;86.10;;;;;;5049489;28;20196;-64
2022/03/27 18:55:15;;;;;;;16.93;8.27;;;1.90;86.30;;;;;;5049515;28;20213;-65
2022/03/27 18:57:45;;;;;;;19.77;7.63;;;1.90;86.30;;;;;;5047911;28;20237;-64
2022/03/27 19:00:14;;;;;;;15.07;7.93;;;1.90;86.30;;;;;;5049586;28;20605;-65
2022/03/27 19:02:42;;;;;;;14.20;7.37;;;1.90;87.20;;;;;;5049986;28;20201;-65
2022/03/27 19:05:12;;;;;;;13.53;6.40;;;1.90;87.40;;;;;;5049378;28;20690;-66
2022/03/27 19:07:41;;;;;;;19.83;7.90;;;1.80;86.70;;;;;;5049253;28;20210;-65
2022/03/27 19:10:10;;;;;;;18.10;7.30;;;1.90;86.80;;;;;;5098573;28;20241;-65
2022/03/27 19:12:41;;;;;;;21.37;7.13;;;1.90;86.80;;;;;;5048028;28;20209;-66
2022/03/27 19:15:12;;;;;;;21.40;7.00;;;1.80;86.70;;;;;;5049596;28;20583;-64
2022/03/27 19:17:48;;;;;;;17.67;6.33;;;1.80;87.00;;;;;;5015133;28;20638;-66
2022/03/27 19:20:25;;;;;;;14.23;6.50;;;1.80;87.00;;;;;;5049111;28;20229;-66
2022/03/27 19:23:07;;;;;;;13.13;6.13;;;1.80;86.90;;;;;;5047522;27;20212;-66
2022/03/27 19:25:36;;;;;;;13.00;6.17;;;1.80;87.10;;;;;;5049144;28;20281;-65
2022/03/27 19:28:07;;;;;;;14.73;6.20;;;1.80;87.30;;;;;;5049134;28;20241;-66
2022/03/27 19:30:38;;;;;;;13.53;6.40;;;1.80;87.40;;;;;;5049009;28;20189;-66
2022/03/27 19:33:06;;;;;;;16.47;6.90;;;1.80;87.40;;;;;;5049111;28;20686;-66
2022/03/27 19:35:35;;;;;;;14.83;7.00;;;1.70;89.00;;;;;;5049011;28;20205;-65
2022/03/27 19:38:06;;;;;;;18.53;7.23;;;1.70;88.90;;;;;;5048796;28;20260;-65
2022/03/27 19:40:34;;;;;;;20.97;7.50;;;1.70;88.90;;;;;;5048840;28;20254;-65
2022/03/27 19:43:02;;;;;;;16.50;7.70;;;1.70;88.30;;;;;;5048897;28;20255;-65
2022/03/27 19:45:30;;;;;;;21.03;7.67;;;1.60;87.90;;;;;;5048835;28;20244;-65
2022/03/27 19:47:59;;;;;;;21.53;8.20;;;1.60;87.80;;;;;;5048619;28;20229;-65
2022/03/27 19:50:28;;;;;;;26.40;8.20;;;1.60;88.00;;;;;;5048976;28;20255;-65
2022/03/27 19:52:58;;;;;;;29.70;9.50;;;1.60;88.00;;;;;;5048692;28;20341;-65
2022/03/27 19:55:27;;;;;;;19.80;8.67;;;1.50;88.10;;;;;;5048370;28;20216;-64
2022/03/27 19:58:05;;;;;;;18.57;7.87;;;1.50;88.40;;;;;;5048230;28;20241;-65
2022/03/27 20:00:33;;;;;;;18.97;9.47;;;1.50;88.40;;;;;;5048871;28;20686;-64
2022/03/27 20:03:01;;;;;;;28.57;13.53;;;1.50;88.60;;;;;;5048862;28;20225;-67
2022/03/27 20:05:30;;;;;;;30.67;14.43;;;1.40;88.30;;;;;;5048582;28;20642;-65
2022/03/27 20:07:59;;;;;;;35.03;15.63;;;1.40;88.60;;;;;;5098123;28;20202;-65
2022/03/27 20:10:28;;;;;;;32.03;15.63;;;1.40;88.60;;;;;;5048550;28;20642;-65
2022/03/27 20:12:56;;;;;;;38.97;17.67;;;1.30;88.70;;;;;;5048410;28;20651;-64
2022/03/27 20:15:24;;;;;;;35.63;17.80;;;1.30;88.90;;;;;;5047254;28;20209;-66
2022/03/27 20:17:52;;;;;;;35.37;18.30;;;1.30;89.20;;;;;;5048163;28;20306;-65
2022/03/27 20:20:20;;;;;;;36.93;17.97;;;1.30;89.30;;;;;;5048478;28;20232;-65
2022/03/27 20:22:47;;;;;;;37.20;19.33;;;1.30;89.50;;;;;;5048199;28;20252;-66
2022/03/27 20:25:17;;;;;;;38.47;19.17;;;1.30;90.10;;;;;;5048262;28;20667;-65
2022/03/27 20:27:46;;;;;;;37.93;18.43;;;1.20;89.30;;;;;;5029704;28;20206;-65
2022/03/27 20:30:15;;;;;;;37.80;19.33;;;1.20;89.40;;;;;;5048302;28;20245;-68
2022/03/27 20:32:45;;;;;;;39.00;19.63;;;1.20;89.50;;;;;;5048089;28;20209;-67
2022/03/27 20:35:13;;;;;;;36.47;20.00;;;1.20;89.80;;;;;;5051418;28;20297;-65
2022/03/27 20:37:40;;;;;;;41.63;21.23;;;1.20;89.80;;;;;;5051380;28;20308;-65
2022/03/27 20:40:09;;;;;;;49.87;23.30;;;1.20;89.90;;;;;;5102388;28;20686;-66
2022/03/27 20:42:38;;;;;;;51.30;26.97;;;1.20;90.00;;;;;;5051758;28;20732;-65
2022/03/27 20:45:06;;;;;;;53.97;28.40;;;1.20;90.10;;;;;;5051797;28;20616;-65
2022/03/27 20:47:34;;;;;;;54.13;28.70;;;1.10;90.30;;;;;;5051432;28;20312;-67
2022/03/27 20:50:02;;;;;;;50.67;26.30;;;1.10;90.70;;;;;;5051491;28;20641;-66
2022/03/27 20:52:30;;;;;;;53.97;24.70;;;1.10;90.80;;;;;;5051474;28;20288;-65
2022/03/27 20:54:57;;;;;;;46.10;22.30;;;1.00;90.80;;;;;;5051342;28;20295;-66
2022/03/27 20:57:25;;;;;;;38.40;19.93;;;1.00;90.90;;;;;;5051035;28;20277;-66
2022/03/27 20:59:54;;;;;;;38.67;18.80;;;1.00;90.90;;;;;;5051248;28;20236;-66
2022/03/27 21:02:21;;;;;;;37.77;19.10;;;1.00;90.90;;;;;;5051370;28;20205;-65
2022/03/27 21:04:49;;;;;;;33.60;17.73;;;1.00;90.90;;;;;;5051160;28;20300;-65
2022/03/27 21:07:17;;;;;;;31.20;16.00;;;0.90;91.00;;;;;;5051169;28;20299;-66
2022/03/27 21:09:44;;;;;;;30.93;15.43;;;0.90;91.10;;;;;;5050950;28;20209;-66
2022/03/27 21:12:12;;;;;;;34.43;15.93;;;0.90;91.10;;;;;;5051052;28;20689;-67
2022/03/27 21:14:39;;;;;;;35.00;16.80;;;0.80;91.20;;;;;;5050933;28;20305;-66
2022/03/27 21:17:09;;;;;;;39.30;17.03;;;0.80;91.20;;;;;;5051354;28;20719;-65
2022/03/27 21:19:36;;;;;;;37.23;16.93;;;0.70;91.20;;;;;;5050758;28;20221;-65
2022/03/27 21:22:05;;;;;;;36.77;17.70;;;0.70;91.20;;;;;;5050919;28;20213;-67
2022/03/27 21:24:32;;;;;;;38.47;18.27;;;0.70;91.20;;;;;;5050792;28;20300;-65
2022/03/27 21:27:00;;;;;;;39.57;18.97;;;0.70;91.30;;;;;;5050873;28;20245;-67
2022/03/27 21:29:27;;;;;;;40.80;18.40;;;0.60;91.50;;;;;;5050863;28;20666;-65
2022/03/27 21:31:55;;;;;;;44.53;19.33;;;0.60;91.40;;;;;;5051104;28;20234;-66
2022/03/27 21:34:26;;;;;;;37.10;17.87;;;0.60;91.40;;;;;;5050653;28;20551;-67
2022/03/27 21:36:54;;;;;;;38.70;18.43;;;0.60;91.40;;;;;;5050945;28;20193;-65
2022/03/27 21:39:21;;;;;;;41.77;18.77;;;0.60;91.40;;;;;;5050634;28;20237;-65
2022/03/27 21:41:49;;;;;;;45.63;19.93;;;0.60;91.20;;;;;;5050731;28;20206;-66
2022/03/27 21:44:17;;;;;;;39.43;19.10;;;0.60;91.20;;;;;;5050282;28;20238;-65
2022/03/27 21:46:45;;;;;;;42.83;19.73;;;0.60;91.10;;;;;;5050846;28;20229;-68
2022/03/27 21:49:12;;;;;;;41.07;20.17;;;0.60;91.00;;;;;;5050592;28;20262;-65
2022/03/27 21:51:41;;;;;;;45.10;20.97;;;0.60;91.00;;;;;;5050726;28;20220;-65
2022/03/27 21:54:08;;;;;;;41.33;20.87;;;0.60;90.90;;;;;;5050864;28;20552;-65
2022/03/27 21:56:35;;;;;;;45.53;21.07;;;0.60;91.30;;;;;;5050383;28;20231;-66
2022/03/27 21:59:02;;;;;;;48.13;22.90;;;0.60;90.90;;;;;;5050611;28;20674;-64
2022/03/27 22:01:30;;;;;;;47.40;22.27;;;0.60;90.80;;;;;;5050244;28;20213;-68
2022/03/27 22:03:58;;;;;;;42.87;21.37;;;0.60;90.80;;;;;;5050382;28;20216;-65
2022/03/27 22:06:25;;;;;;;45.10;21.77;;;0.60;90.90;;;;;;5050616;28;20569;-68
2022/03/27 22:08:53;;;;;;;42.73;20.67;;;0.60;90.90;;;;;;5050534;28;20714;-64
2022/03/27 22:11:21;;;;;;;39.37;21.37;;;0.60;91.00;;;;;;5050293;28;20712;-67
2022/03/27 22:13:48;;;;;;;43.13;20.77;;;0.60;91.20;;;;;;5050153;28;20205;-65
2022/03/27 22:16:15;;;;;;;41.50;19.43;;;0.60;91.10;;;;;;5050323;28;20333;-65
2022/03/27 22:18:42;;;;;;;37.93;18.00;;;0.60;91.20;;;;;;5050056;28;20225;-66
2022/03/27 22:21:11;;;;;;;31.80;16.50;;;0.50;91.30;;;;;;5050338;28;20274;-67
2022/03/27 22:23:39;;;;;;;31.13;15.57;;;0.50;91.40;;;;;;5050256;28;20648;-67
2022/03/27 22:26:07;;;;;;;30.60;15.43;;;0.50;91.60;;;;;;5049964;28;20212;-67
2022/03/27 22:28:35;;;;;;;32.50;13.90;;;0.50;91.80;;;;;;5049787;28;20205;-65
2022/03/27 22:31:02;;;;;;;24.50;12.33;;;0.50;91.80;;;;;;5049981;28;20205;-65
2022/03/27 22:33:29;;;;;;;26.10;11.97;;;0.40;91.90;;;;;;5049630;28;20209;-64
2022/03/27 22:35:56;;;;;;;23.27;12.03;;;0.40;91.90;;;;;;5049855;28;20209;-65
2022/03/27 22:38:23;;;;;;;23.43;12.30;;;0.40;91.90;;;;;;5049665;28;20386;-66
2022/03/27 22:40:51;;;;;;;30.13;12.57;;;0.40;91.80;;;;;;5050098;28;20663;-65
2022/03/27 22:43:19;;;;;;;25.17;11.37;;;0.50;91.90;;;;;;5049880;28;20238;-65
2022/03/27 22:45:46;;;;;;;30.20;11.40;;;0.40;91.90;;;;;;5050063;28;20262;-67
2022/03/27 22:48:13;;;;;;;21.47;10.10;;;0.30;92.00;;;;;;5049384;28;20225;-67
2022/03/27 22:50:41;;;;;;;22.20;10.80;;;0.30;92.10;;;;;;5049933;28;20277;-65
2022/03/27 22:53:08;;;;;;;21.63;10.73;;;0.30;92.20;;;;;;5049703;28;20209;-67
2022/03/27 22:55:35;;;;;;;21.57;11.33;;;0.30;92.40;;;;;;5049351;28;20296;-65
2022/03/27 22:58:02;;;;;;;28.13;13.27;;;0.30;92.40;;;;;;5048887;28;20233;-65
2022/03/27 23:00:31;;;;;;;30.13;14.30;;;0.20;92.40;;;;;;5049553;28;20615;-64
2022/03/27 23:02:59;;;;;;;29.30;14.37;;;0.20;92.50;;;;;;5049750;28;20202;-64
2022/03/27 23:05:26;;;;;;;31.90;14.80;;;0.20;92.70;;;;;;5049510;28;20231;-65
2022/03/27 23:07:53;;;;;;;30.03;14.90;;;0.10;92.70;;;;;;5049660;28;20209;-64
2022/03/27 23:10:20;;;;;;;27.30;14.40;;;0.10;92.80;;;;;;5049476;28;20598;-64
2022/03/27 23:12:47;;;;;;;28.77;14.93;;;0.10;92.90;;;;;;5049562;28;20240;-66
2022/03/27 23:15:15;;;;;;;29.53;13.50;;;0.10;93.00;;;;;;5049354;28;20213;-66
2022/03/27 23:17:44;;;;;;;27.40;13.07;;;0.10;93.00;;;;;;5049520;28;20257;-65
2022/03/27 23:20:12;;;;;;;29.03;12.00;;;0.00;93.10;;;;;;5048808;28;20229;-65
2022/03/27 23:22:39;;;;;;;22.93;11.33;;;0.00;93.10;;;;;;5049090;28;20217;-66
2022/03/27 23:25:07;;;;;;;18.27;10.17;;;0.00;93.10;;;;;;5049002;28;20254;-66
2022/03/27 23:27:35;;;;;;;19.80;10.00;;;0.00;93.10;;;;;;5049310;28;20209;-66
2022/03/27 23:30:02;;;;;;;22.37;10.00;;;0.00;93.20;;;;;;5049165;28;20205;-65
2022/03/27 23:32:29;;;;;;;19.00;10.03;;;0.00;93.40;;;;;;5049377;28;20208;-66
2022/03/27 23:35:00;;;;;;;19.43;9.47;;;0.00;93.60;;;;;;5049283;28;20217;-65
2022/03/27 23:37:27;;;;;;;25.63;10.73;;;0.00;93.60;;;;;;5049358;28;20627;-65
2022/03/27 23:39:54;;;;;;;22.63;10.97;;;0.00;93.60;;;;;;5048897;28;20281;-65
2022/03/27 23:42:21;;;;;;;23.30;11.07;;;0.00;93.60;;;;;;5048738;28;20209;-67
2022/03/27 23:44:48;;;;;;;24.47;11.83;;;0.00;93.70;;;;;;5049167;28;20220;-65
2022/03/27 23:47:15;;;;;;;26.63;12.30;;;0.00;93.80;;;;;;5048919;28;20225;-65
2022/03/27 23:49:43;;;;;;;30.97;13.57;;;0.00;93.90;;;;;;5048797;28;20253;-65
2022/03/27 23:52:11;;;;;;;31.13;13.93;;;0.00;93.90;;;;;;5048906;28;20212;-65
2022/03/27 23:54:38;;;;;;;34.57;14.73;;;0.00;94.00;;;;;;5049132;28;20233;-65
2022/03/27 23:57:05;;;;;;;34.47;14.37;;;0.00;94.00;;;;;;5048556;28;20660;-66
2022/03/27 23:59:32;;;;;;;33.40;15.43;;;0.00;94.00;;;;;;5048619;28;20221;-64
